createdAt,value
2017-07-17T00:01:29.855Z,21.60
2017-07-17T00:03:56.659Z,21.60
2017-07-17T00:06:22.734Z,21.60
2017-07-17T00:08:48.815Z,21.50
2017-07-17T00:11:14.863Z,21.50
2017-07-17T00:13:40.914Z,21.60
2017-07-17T00:16:06.974Z,21.60
2017-07-17T00:18:33.039Z,21.50
2017-07-17T00:20:59.094Z,21.50
2017-07-17T00:23:25.141Z,21.50
2017-07-17T00:25:51.213Z,21.50
2017-07-17T00:28:17.261Z,21.60
2017-07-17T09:20:51.703Z,22.80
2017-07-17T09:23:17.759Z,22.30
2017-07-17T09:25:43.819Z,22.10
2017-07-17T09:28:09.879Z,21.90
2017-07-17T09:30:35.975Z,21.90
2017-07-17T09:33:02.066Z,21.90
2017-07-17T09:35:28.125Z,22.00
2017-07-17T09:37:54.282Z,22.00
2017-07-17T09:40:20.331Z,22.00
2017-07-17T09:43:01.342Z,22.10
2017-07-17T09:45:27.447Z,22.10
2017-07-17T09:47:53.499Z,22.20
2017-07-17T09:50:19.571Z,22.20
2017-07-17T09:52:45.631Z,22.20
2017-07-17T09:55:12.393Z,22.20
2017-07-17T09:57:38.644Z,22.20
2017-07-17T10:00:04.747Z,22.30
2017-07-17T10:02:30.803Z,22.30
2017-07-17T10:04:56.863Z,22.30
2017-07-17T10:07:23.938Z,22.40
2017-07-17T10:09:50.007Z,22.40
2017-07-17T10:12:16.079Z,22.40
2017-07-17T10:14:42.147Z,22.40
2017-07-17T10:17:08.211Z,22.50
2017-07-17T10:19:34.269Z,22.50
2017-07-17T10:22:00.322Z,22.60
2017-07-17T10:24:26.379Z,22.60
2017-07-17T10:26:52.466Z,22.60
2017-07-17T10:29:18.651Z,22.50
2017-07-17T10:31:44.718Z,22.50
2017-07-17T10:34:10.822Z,22.50
2017-07-17T10:36:36.871Z,22.50
2017-07-17T10:39:02.972Z,22.50
2017-07-17T10:41:29.031Z,22.50
2017-07-17T10:43:55.875Z,22.60
2017-07-17T10:46:22.680Z,22.70
2017-07-17T10:48:48.764Z,22.60
2017-07-17T10:51:15.020Z,22.70
2017-07-17T10:53:41.117Z,22.70
2017-07-17T10:56:07.902Z,22.80
2017-07-17T10:58:33.979Z,22.80
2017-07-17T11:01:00.027Z,22.90
2017-07-17T11:03:26.110Z,22.90
2017-07-17T11:05:52.184Z,22.90
2017-07-17T11:08:18.234Z,22.90
2017-07-17T11:10:44.342Z,22.90
2017-07-17T11:13:10.510Z,22.90
2017-07-17T11:15:36.554Z,23.00
2017-07-17T11:18:03.355Z,23.10
2017-07-17T11:20:29.398Z,23.00
2017-07-17T11:22:55.459Z,23.00
2017-07-17T11:25:21.526Z,23.10
2017-07-17T11:27:47.595Z,23.10
2017-07-17T11:30:13.630Z,23.10
2017-07-17T11:35:06.366Z,23.20
2017-07-17T11:37:32.451Z,23.20
2017-07-17T11:39:58.510Z,23.20
2017-07-17T11:42:24.584Z,23.20
2017-07-17T11:44:50.639Z,23.20
2017-07-17T11:59:50.379Z,23.40
2017-07-17T12:02:16.443Z,23.40
2017-07-17T12:04:43.242Z,23.40
2017-07-17T12:07:09.298Z,23.40
2017-07-17T12:09:35.370Z,23.50
2017-07-17T12:12:01.421Z,23.40
2017-07-17T12:14:27.547Z,23.40
2017-07-17T12:16:53.603Z,23.40
2017-07-17T12:19:19.882Z,23.50
2017-07-17T12:21:45.954Z,23.60
2017-07-17T12:24:12.062Z,23.60
2017-07-17T12:26:38.106Z,23.70
2017-07-17T12:29:04.210Z,23.80
2017-07-17T12:31:30.246Z,23.80
2017-07-17T12:33:56.281Z,23.90
2017-07-17T12:36:22.385Z,23.90
2017-07-17T12:38:48.438Z,23.90
2017-07-17T12:41:15.463Z,24.00
2017-07-17T12:43:41.506Z,24.00
2017-07-17T12:46:14.386Z,24.00
2017-07-17T12:48:40.430Z,24.00
2017-07-17T12:51:06.487Z,24.00
2017-07-17T12:53:47.536Z,24.00
2017-07-17T12:56:13.575Z,24.00
2017-07-17T12:58:39.626Z,23.90
2017-07-17T13:01:05.670Z,23.90
2017-07-17T13:03:31.731Z,24.00
2017-07-17T13:05:57.773Z,24.00
2017-07-17T13:08:24.553Z,23.90
2017-07-17T13:10:50.624Z,23.90
2017-07-17T13:13:17.198Z,23.80
2017-07-17T13:15:43.485Z,23.90
2017-07-17T13:18:09.539Z,24.10
2017-07-17T13:20:36.326Z,24.20
2017-07-17T13:23:02.383Z,24.20
2017-07-17T13:25:28.429Z,24.30
2017-07-17T13:27:54.536Z,24.30
2017-07-17T13:30:20.598Z,24.40
2017-07-17T13:32:46.722Z,24.70
2017-07-17T13:35:12.762Z,25.40
2017-07-17T13:37:38.909Z,25.60
2017-07-17T13:40:04.974Z,25.90
2017-07-17T13:42:31.027Z,26.10
2017-07-17T13:44:57.090Z,25.90
2017-07-17T13:47:23.206Z,25.90
2017-07-17T13:49:49.272Z,25.90
2017-07-17T13:52:15.333Z,25.90
2017-07-17T13:54:41.373Z,26.10
2017-07-17T13:57:07.465Z,26.20
2017-07-17T13:59:33.771Z,26.10
2017-07-17T14:01:59.811Z,25.80
2017-07-17T14:04:25.854Z,25.70
2017-07-17T14:06:51.909Z,25.50
2017-07-17T14:09:17.983Z,25.90
2017-07-17T14:11:44.026Z,26.20
2017-07-17T14:14:10.091Z,26.20
2017-07-17T14:16:36.182Z,26.20
2017-07-17T14:19:02.230Z,26.10
2017-07-17T14:21:28.618Z,26.30
2017-07-17T14:23:54.670Z,26.30
2017-07-17T14:26:21.472Z,26.50
2017-07-17T14:28:47.520Z,26.50
2017-07-17T14:31:13.590Z,26.70
2017-07-17T14:33:39.643Z,26.60
2017-07-17T14:36:05.687Z,26.70
2017-07-17T14:38:31.740Z,26.90
2017-07-17T14:40:58.551Z,27.00
2017-07-17T14:43:24.707Z,27.00
2017-07-17T14:45:50.766Z,26.90
2017-07-17T14:48:16.836Z,27.00
2017-07-17T14:50:42.878Z,27.00
2017-07-17T14:53:09.689Z,27.10
2017-07-17T14:55:35.731Z,27.10
2017-07-17T14:58:01.798Z,27.20
2017-07-17T15:00:27.841Z,27.20
2017-07-17T15:02:54.633Z,27.20
2017-07-17T15:05:20.746Z,27.20
2017-07-17T15:07:46.794Z,27.20
2017-07-17T15:10:12.837Z,27.30
2017-07-17T15:12:38.896Z,27.00
2017-07-17T15:15:04.946Z,26.90
2017-07-17T15:17:30.978Z,26.60
2017-07-17T15:19:57.029Z,26.40
2017-07-17T15:22:42.814Z,26.10
2017-07-17T15:25:08.871Z,26.20
2017-07-17T15:27:35.974Z,26.10
2017-07-17T15:30:02.014Z,26.00
2017-07-17T15:32:28.062Z,25.90
2017-07-17T15:34:54.114Z,25.90
2017-07-17T15:37:20.162Z,25.80
2017-07-17T15:39:46.242Z,25.70
2017-07-17T15:42:12.294Z,25.60
2017-07-17T15:44:38.359Z,25.60
2017-07-17T15:47:04.412Z,25.50
2017-07-17T15:49:30.708Z,25.40
2017-07-17T15:51:56.769Z,25.40
2017-07-17T15:54:22.835Z,25.40
2017-07-17T15:56:48.893Z,25.30
2017-07-17T15:59:14.954Z,25.30
2017-07-17T16:01:40.994Z,25.10
2017-07-17T16:04:07.034Z,25.20
2017-07-17T16:06:33.091Z,25.30
2017-07-17T16:08:59.150Z,25.20
2017-07-17T16:11:40.198Z,25.10
2017-07-17T16:14:06.242Z,25.00
2017-07-17T16:16:32.303Z,25.00
2017-07-17T16:18:59.102Z,24.90
2017-07-17T16:21:25.146Z,24.90
2017-07-17T16:23:51.201Z,24.80
2017-07-17T16:26:17.246Z,24.90
2017-07-17T16:28:43.292Z,24.90
2017-07-17T16:31:09.379Z,24.90
2017-07-17T16:33:35.761Z,24.80
2017-07-17T16:36:01.824Z,24.80
2017-07-17T16:38:27.879Z,24.70
2017-07-17T16:40:53.924Z,24.80
2017-07-17T16:43:19.980Z,24.70
2017-07-17T16:45:46.025Z,24.70
2017-07-17T16:48:12.074Z,24.70
2017-07-17T16:50:38.138Z,24.70
2017-07-17T16:53:04.198Z,24.60
2017-07-17T16:55:31.008Z,24.60
2017-07-17T16:57:57.094Z,24.60
2017-07-17T17:00:23.163Z,24.50
2017-07-17T17:02:49.247Z,24.50
2017-07-17T17:05:15.323Z,24.50
2017-07-17T17:07:56.334Z,24.40
2017-07-17T17:10:23.135Z,24.50
2017-07-17T17:12:49.188Z,24.40
2017-07-17T17:15:15.289Z,24.40
2017-07-17T17:17:42.133Z,24.40
2017-07-17T17:20:08.177Z,24.30
2017-07-17T17:22:34.215Z,24.30
2017-07-17T17:25:00.294Z,24.30
2017-07-17T17:27:26.349Z,24.30
2017-07-17T17:29:52.389Z,24.30
2017-07-17T17:32:18.463Z,24.30
2017-07-17T17:34:44.528Z,24.20
2017-07-17T17:37:10.573Z,24.20
2017-07-17T17:39:36.849Z,24.30
2017-07-17T17:42:02.892Z,24.20
2017-07-17T17:44:28.927Z,24.20
2017-07-17T17:46:54.969Z,24.20
2017-07-17T17:49:21.035Z,24.20
2017-07-17T17:51:47.105Z,24.20
2017-07-17T17:54:13.231Z,24.20
2017-07-17T17:56:39.290Z,24.20
2017-07-17T17:59:05.338Z,24.20
2017-07-17T18:01:32.136Z,24.10
2017-07-17T18:03:58.182Z,24.10
2017-07-17T18:06:24.260Z,24.10
2017-07-17T18:08:50.300Z,24.10
2017-07-17T18:11:16.337Z,24.10
2017-07-17T18:13:42.414Z,24.10
2017-07-17T18:16:08.462Z,24.00
2017-07-17T18:18:34.503Z,24.00
2017-07-17T18:21:00.547Z,24.00
2017-07-17T18:23:26.837Z,24.00
2017-07-17T18:25:52.919Z,24.00
2017-07-17T18:28:19.735Z,24.00
2017-07-17T18:30:45.786Z,23.90
2017-07-17T18:33:11.842Z,23.90
2017-07-17T18:35:37.893Z,23.90
2017-07-17T18:38:03.935Z,23.90
2017-07-17T18:40:29.986Z,23.90
2017-07-17T18:42:56.029Z,23.90
2017-07-17T18:45:23.035Z,23.80
2017-07-17T18:47:49.075Z,23.80
2017-07-17T18:50:15.122Z,23.80
2017-07-17T18:52:41.189Z,23.80
2017-07-17T18:55:07.238Z,23.80
2017-07-17T18:57:33.294Z,23.80
2017-07-17T18:59:59.345Z,23.80
2017-07-17T19:02:25.399Z,23.80
2017-07-17T19:04:51.466Z,23.80
2017-07-17T19:07:17.746Z,23.80
2017-07-17T19:09:43.792Z,23.80
2017-07-17T19:12:09.830Z,23.80
2017-07-17T19:14:35.896Z,23.70
2017-07-17T19:17:01.949Z,23.70
2017-07-17T19:19:28.030Z,23.70
2017-07-17T19:21:54.070Z,23.70
2017-07-17T19:24:20.859Z,23.70
2017-07-17T19:26:46.901Z,23.70
2017-07-17T19:29:12.997Z,23.70
2017-07-17T19:31:39.062Z,23.70
2017-07-17T19:34:05.128Z,23.70
2017-07-17T19:36:31.178Z,23.70
2017-07-17T19:38:57.227Z,23.60
2017-07-17T19:41:23.298Z,23.60
2017-07-17T19:43:50.097Z,23.60
2017-07-17T19:46:16.163Z,23.60
2017-07-17T19:48:42.234Z,23.60
2017-07-17T19:51:08.357Z,23.60
2017-07-17T19:53:34.415Z,23.60
2017-07-17T19:56:00.481Z,23.60
2017-07-17T19:58:26.542Z,23.60
2017-07-17T20:00:52.580Z,23.60
2017-07-17T20:03:18.637Z,23.60
2017-07-17T20:05:44.683Z,23.60
2017-07-17T20:08:10.747Z,23.60
2017-07-17T20:10:36.806Z,23.50
2017-07-17T20:13:02.910Z,23.50
2017-07-17T20:15:28.961Z,23.50
2017-07-17T20:17:55.007Z,23.50
2017-07-17T20:20:21.063Z,23.50
2017-07-17T20:22:47.130Z,23.50
2017-07-17T20:25:13.182Z,23.50
2017-07-17T20:27:39.229Z,23.50
2017-07-17T20:30:05.323Z,23.50
2017-07-17T20:32:31.363Z,23.50
2017-07-17T20:34:57.427Z,23.50
2017-07-17T20:37:23.478Z,23.50
2017-07-17T20:39:49.538Z,23.50
2017-07-17T20:42:15.594Z,23.50
2017-07-17T20:44:41.655Z,23.50
2017-07-17T20:47:07.709Z,23.40
2017-07-17T20:49:34.049Z,23.40
2017-07-17T20:52:00.838Z,23.40
2017-07-17T20:54:26.896Z,23.40
2017-07-17T20:56:53.212Z,23.40
2017-07-17T20:59:19.256Z,23.40
2017-07-17T21:01:45.303Z,23.40
2017-07-17T21:04:11.363Z,23.40
2017-07-17T21:06:37.407Z,23.40
2017-07-17T21:09:03.494Z,23.40
2017-07-17T21:11:29.550Z,23.40
2017-07-17T21:13:55.593Z,23.40
2017-07-17T21:16:21.655Z,23.40
2017-07-17T21:18:47.723Z,23.40
2017-07-17T21:21:13.767Z,23.40
2017-07-17T21:23:39.826Z,23.30
2017-07-17T21:26:05.875Z,23.40
2017-07-17T21:28:31.923Z,23.40
2017-07-17T21:30:57.969Z,23.40
2017-07-17T21:33:24.026Z,23.40
2017-07-17T21:36:05.075Z,23.40
2017-07-17T21:38:31.149Z,23.30
2017-07-17T21:41:12.188Z,23.30
2017-07-17T21:43:38.274Z,23.30
2017-07-17T21:46:04.341Z,23.30
2017-07-17T21:48:30.416Z,23.30
2017-07-17T21:50:56.470Z,23.30
2017-07-17T21:53:22.538Z,23.30
2017-07-17T21:55:48.622Z,23.30
2017-07-17T21:58:14.757Z,23.30
2017-07-17T22:00:40.811Z,23.30
2017-07-17T22:03:06.854Z,23.30
2017-07-17T22:05:32.905Z,23.20
2017-07-17T22:07:58.975Z,23.20
2017-07-17T22:10:25.014Z,23.20
2017-07-17T22:12:51.091Z,23.20
2017-07-17T22:15:17.143Z,23.20
2017-07-17T22:17:43.211Z,23.20
2017-07-17T22:20:09.295Z,23.10
2017-07-17T22:22:35.382Z,23.10
2017-07-17T22:25:01.451Z,23.10
2017-07-17T22:27:27.506Z,23.10
2017-07-17T22:29:53.601Z,23.10
2017-07-17T22:32:19.651Z,23.10
2017-07-17T22:34:45.718Z,23.10
2017-07-17T22:37:11.794Z,23.10
2017-07-17T22:39:37.843Z,23.00
2017-07-17T22:42:04.131Z,23.00
2017-07-17T22:44:30.179Z,23.00
2017-07-17T22:46:56.994Z,23.00
2017-07-17T22:49:23.038Z,22.90
2017-07-17T22:51:49.096Z,22.90
2017-07-17T22:54:15.163Z,23.00
2017-07-17T22:56:41.235Z,22.90
2017-07-17T22:59:07.278Z,22.90
2017-07-17T23:01:34.066Z,22.80
2017-07-17T23:04:00.185Z,22.80
2017-07-17T23:06:26.242Z,22.80
2017-07-17T23:08:53.079Z,22.90
2017-07-17T23:11:19.160Z,22.90
2017-07-17T23:13:45.218Z,22.80
2017-07-17T23:16:11.266Z,22.70
2017-07-17T23:18:37.316Z,22.70
2017-07-17T23:21:03.382Z,22.70
2017-07-17T23:23:29.426Z,22.70
2017-07-17T23:25:55.650Z,22.70
2017-07-17T23:28:21.710Z,22.70
2017-07-17T23:30:47.777Z,22.70
2017-07-17T23:33:13.834Z,22.70
2017-07-17T23:35:39.893Z,22.80
2017-07-17T23:38:05.947Z,22.70
2017-07-17T23:40:32.002Z,22.70
2017-07-17T23:42:58.093Z,22.70
2017-07-17T23:45:24.144Z,22.70
2017-07-17T23:47:50.479Z,22.60
2017-07-17T23:50:16.532Z,22.60
2017-07-17T23:52:42.582Z,22.60
2017-07-17T23:55:08.666Z,22.70
2017-07-17T23:57:34.722Z,22.70
